sensor_id;sensor_type;location;lat;lon;timestamp;temperature;humidity
9998;DHT22;5038;53.064;8.624;2023-07-02T00:00:19;16.80;99.90
9998;DHT22;5038;53.064;8.624;2023-07-02T00:02:48;16.80;99.90
9998;DHT22;5038;53.064;8.624;2023-07-02T00:05:16;16.80;99.90
9998;DHT22;5038;53.064;8.624;2023-07-02T00:07:45;16.80;99.90
9998;DHT22;5038;53.064;8.624;2023-07-02T00:10:13;16.80;99.90
9998;DHT22;5038;53.064;8.624;2023-07-02T00:12:41;16.80;99.90
9998;DHT22;5038;53.064;8.624;2023-07-02T00:15:12;16.80;99.90
9998;DHT22;5038;53.064;8.624;2023-07-02T00:17:40;16.80;99.90
9998;DHT22;5038;53.064;8.624;2023-07-02T00:20:10;16.80;99.90
9998;DHT22;5038;53.064;8.624;2023-07-02T00:22:42;16.80;99.90
9998;DHT22;5038;53.064;8.624;2023-07-02T00:25:12;16.80;99.90
9998;DHT22;5038;53.064;8.624;2023-07-02T00:27:41;16.80;99.90
9998;DHT22;5038;53.064;8.624;2023-07-02T00:30:09;16.80;99.90
9998;DHT22;5038;53.064;8.624;2023-07-02T00:32:39;16.80;99.90
9998;DHT22;5038;53.064;8.624;2023-07-02T00:35:08;16.80;99.90
9998;DHT22;5038;53.064;8.624;2023-07-02T00:37:36;16.80;99.90
9998;DHT22;5038;53.064;8.624;2023-07-02T00:40:05;16.80;99.90
9998;DHT22;5038;53.064;8.624;2023-07-02T00:42:34;16.80;99.90
9998;DHT22;5038;53.064;8.624;2023-07-02T00:45:03;16.80;99.90
9998;DHT22;5038;53.064;8.624;2023-07-02T00:47:33;16.80;99.90
9998;DHT22;5038;53.064;8.624;2023-07-02T00:50:05;16.80;99.90
9998;DHT22;5038;53.064;8.624;2023-07-02T00:52:36;16.80;99.90
9998;DHT22;5038;53.064;8.624;2023-07-02T00:55:06;16.80;99.90
9998;DHT22;5038;53.064;8.624;2023-07-02T00:57:34;16.80;99.90
9998;DHT22;5038;53.064;8.624;2023-07-02T01:00:03;16.80;99.90
9998;DHT22;5038;53.064;8.624;2023-07-02T01:02:33;16.80;99.90
9998;DHT22;5038;53.064;8.624;2023-07-02T01:05:01;16.80;99.90
9998;DHT22;5038;53.064;8.624;2023-07-02T01:07:31;16.80;99.90
9998;DHT22;5038;53.064;8.624;2023-07-02T01:09:59;16.80;99.90
9998;DHT22;5038;53.064;8.624;2023-07-02T01:12:27;16.80;99.90
9998;DHT22;5038;53.064;8.624;2023-07-02T01:14:59;16.80;99.90
9998;DHT22;5038;53.064;8.624;2023-07-02T01:17:31;16.80;99.90
9998;DHT22;5038;53.064;8.624;2023-07-02T01:20:09;16.80;99.90
9998;DHT22;5038;53.064;8.624;2023-07-02T01:22:38;16.80;99.90
9998;DHT22;5038;53.064;8.624;2023-07-02T01:25:07;16.80;99.90
9998;DHT22;5038;53.064;8.624;2023-07-02T01:27:37;16.80;99.90
9998;DHT22;5038;53.064;8.624;2023-07-02T01:30:07;16.80;99.90
9998;DHT22;5038;53.064;8.624;2023-07-02T01:32:37;16.80;99.90
9998;DHT22;5038;53.064;8.624;2023-07-02T01:35:08;16.80;99.90
9998;DHT22;5038;53.064;8.624;2023-07-02T01:37:36;16.80;99.90
9998;DHT22;5038;53.064;8.624;2023-07-02T01:40:06;16.80;99.90
9998;DHT22;5038;53.064;8.624;2023-07-02T01:42:35;16.80;99.90
9998;DHT22;5038;53.064;8.624;2023-07-02T01:45:04;16.80;99.90
9998;DHT22;5038;53.064;8.624;2023-07-02T01:47:32;16.80;99.90
9998;DHT22;5038;53.064;8.624;2023-07-02T01:50:01;16.80;99.90
9998;DHT22;5038;53.064;8.624;2023-07-02T01:52:31;16.80;99.90
9998;DHT22;5038;53.064;8.624;2023-07-02T01:55:01;16.80;99.90
9998;DHT22;5038;53.064;8.624;2023-07-02T01:57:30;16.80;99.90
9998;DHT22;5038;53.064;8.624;2023-07-02T01:59:58;16.70;99.90
9998;DHT22;5038;53.064;8.624;2023-07-02T02:02:27;16.70;99.90
9998;DHT22;5038;53.064;8.624;2023-07-02T02:04:55;16.70;99.90
9998;DHT22;5038;53.064;8.624;2023-07-02T02:07:24;16.70;99.90
9998;DHT22;5038;53.064;8.624;2023-07-02T02:09:53;16.70;99.90
9998;DHT22;5038;53.064;8.624;2023-07-02T02:12:22;16.70;99.90
9998;DHT22;5038;53.064;8.624;2023-07-02T02:14:50;16.60;99.90
9998;DHT22;5038;53.064;8.624;2023-07-02T02:17:19;16.60;99.90
9998;DHT22;5038;53.064;8.624;2023-07-02T02:19:47;16.60;99.90
9998;DHT22;5038;53.064;8.624;2023-07-02T02:22:15;16.60;99.90
9998;DHT22;5038;53.064;8.624;2023-07-02T02:24:43;16.60;99.90
9998;DHT22;5038;53.064;8.624;2023-07-02T02:27:13;16.60;99.90
9998;DHT22;5038;53.064;8.624;2023-07-02T02:29:41;16.50;99.90
9998;DHT22;5038;53.064;8.624;2023-07-02T02:32:09;16.50;99.90
9998;DHT22;5038;53.064;8.624;2023-07-02T02:34:38;16.50;99.90
9998;DHT22;5038;53.064;8.624;2023-07-02T02:37:06;16.50;99.90
9998;DHT22;5038;53.064;8.624;2023-07-02T02:39:36;16.50;99.90
9998;DHT22;5038;53.064;8.624;2023-07-02T02:42:04;16.50;99.90
9998;DHT22;5038;53.064;8.624;2023-07-02T02:44:34;16.50;99.90
9998;DHT22;5038;53.064;8.624;2023-07-02T02:47:03;16.40;99.90
9998;DHT22;5038;53.064;8.624;2023-07-02T02:49:32;16.40;99.90
9998;DHT22;5038;53.064;8.624;2023-07-02T02:52:01;16.40;99.90
9998;DHT22;5038;53.064;8.624;2023-07-02T02:54:29;16.40;99.90
9998;DHT22;5038;53.064;8.624;2023-07-02T02:56:57;16.40;99.90
9998;DHT22;5038;53.064;8.624;2023-07-02T02:59:25;16.40;99.90
9998;DHT22;5038;53.064;8.624;2023-07-02T03:01:54;16.40;99.90
9998;DHT22;5038;53.064;8.624;2023-07-02T03:04:23;16.40;99.90
9998;DHT22;5038;53.064;8.624;2023-07-02T03:06:52;16.30;99.90
9998;DHT22;5038;53.064;8.624;2023-07-02T03:09:20;16.30;99.90
9998;DHT22;5038;53.064;8.624;2023-07-02T03:11:49;16.30;99.90
9998;DHT22;5038;53.064;8.624;2023-07-02T03:14:17;16.30;99.90
9998;DHT22;5038;53.064;8.624;2023-07-02T03:16:45;16.30;99.90
9998;DHT22;5038;53.064;8.624;2023-07-02T03:19:15;16.30;99.90
9998;DHT22;5038;53.064;8.624;2023-07-02T03:21:44;16.30;99.90
9998;DHT22;5038;53.064;8.624;2023-07-02T03:24:12;16.30;99.90
9998;DHT22;5038;53.064;8.624;2023-07-02T03:26:40;16.20;99.90
9998;DHT22;5038;53.064;8.624;2023-07-02T03:29:09;16.20;99.90
9998;DHT22;5038;53.064;8.624;2023-07-02T03:31:37;16.20;99.90
9998;DHT22;5038;53.064;8.624;2023-07-02T03:34:07;16.20;99.90
9998;DHT22;5038;53.064;8.624;2023-07-02T03:36:37;16.20;99.90
9998;DHT22;5038;53.064;8.624;2023-07-02T03:39:05;16.20;99.90
9998;DHT22;5038;53.064;8.624;2023-07-02T03:41:36;16.10;99.90
9998;DHT22;5038;53.064;8.624;2023-07-02T03:44:05;16.10;99.90
9998;DHT22;5038;53.064;8.624;2023-07-02T03:46:33;16.10;99.90
9998;DHT22;5038;53.064;8.624;2023-07-02T03:49:02;16.10;99.90
9998;DHT22;5038;53.064;8.624;2023-07-02T03:51:31;16.10;99.90
9998;DHT22;5038;53.064;8.624;2023-07-02T03:54:00;16.10;99.90
9998;DHT22;5038;53.064;8.624;2023-07-02T03:56:28;16.00;99.90
9998;DHT22;5038;53.064;8.624;2023-07-02T03:58:57;16.00;99.90
9998;DHT22;5038;53.064;8.624;2023-07-02T04:01:25;16.00;99.90
9998;DHT22;5038;53.064;8.624;2023-07-02T04:03:55;16.00;99.90
9998;DHT22;5038;53.064;8.624;2023-07-02T04:06:23;16.00;99.90
9998;DHT22;5038;53.064;8.624;2023-07-02T04:08:51;16.00;99.90
9998;DHT22;5038;53.064;8.624;2023-07-02T04:11:21;16.00;99.90
9998;DHT22;5038;53.064;8.624;2023-07-02T04:13:49;16.00;99.90
9998;DHT22;5038;53.064;8.624;2023-07-02T04:16:17;16.00;99.90
9998;DHT22;5038;53.064;8.624;2023-07-02T04:18:45;16.00;99.90
9998;DHT22;5038;53.064;8.624;2023-07-02T04:21:13;16.00;99.90
9998;DHT22;5038;53.064;8.624;2023-07-02T04:23:41;16.00;99.90
9998;DHT22;5038;53.064;8.624;2023-07-02T04:26:10;16.00;99.90
9998;DHT22;5038;53.064;8.624;2023-07-02T04:28:59;16.00;99.90
9998;DHT22;5038;53.064;8.624;2023-07-02T04:31:28;16.00;99.90
9998;DHT22;5038;53.064;8.624;2023-07-02T04:33:57;16.00;99.90
9998;DHT22;5038;53.064;8.624;2023-07-02T04:36:26;16.00;99.90
9998;DHT22;5038;53.064;8.624;2023-07-02T04:38:55;16.00;99.90
9998;DHT22;5038;53.064;8.624;2023-07-02T04:41:23;16.00;99.90
9998;DHT22;5038;53.064;8.624;2023-07-02T04:43:51;16.00;99.90
9998;DHT22;5038;53.064;8.624;2023-07-02T04:46:21;16.00;99.90
9998;DHT22;5038;53.064;8.624;2023-07-02T04:48:49;16.00;99.90
9998;DHT22;5038;53.064;8.624;2023-07-02T04:51:17;16.10;99.90
9998;DHT22;5038;53.064;8.624;2023-07-02T04:53:45;16.00;99.90
9998;DHT22;5038;53.064;8.624;2023-07-02T04:56:13;16.00;99.90
9998;DHT22;5038;53.064;8.624;2023-07-02T04:58:41;16.10;99.90
9998;DHT22;5038;53.064;8.624;2023-07-02T05:01:09;16.10;99.90
9998;DHT22;5038;53.064;8.624;2023-07-02T05:03:39;16.10;99.90
9998;DHT22;5038;53.064;8.624;2023-07-02T05:06:07;16.10;99.90
9998;DHT22;5038;53.064;8.624;2023-07-02T05:08:35;16.10;99.90
9998;DHT22;5038;53.064;8.624;2023-07-02T05:11:03;16.20;99.90
9998;DHT22;5038;53.064;8.624;2023-07-02T05:13:31;16.20;99.90
9998;DHT22;5038;53.064;8.624;2023-07-02T05:15:59;16.20;99.90
9998;DHT22;5038;53.064;8.624;2023-07-02T05:18:28;16.20;99.90
9998;DHT22;5038;53.064;8.624;2023-07-02T05:20:57;16.30;99.90
9998;DHT22;5038;53.064;8.624;2023-07-02T05:23:25;16.30;99.90
9998;DHT22;5038;53.064;8.624;2023-07-02T05:25:53;16.30;99.90
9998;DHT22;5038;53.064;8.624;2023-07-02T05:28:21;16.30;99.90
9998;DHT22;5038;53.064;8.624;2023-07-02T05:30:49;16.30;99.90
9998;DHT22;5038;53.064;8.624;2023-07-02T05:33:19;16.30;99.90
9998;DHT22;5038;53.064;8.624;2023-07-02T05:35:48;16.40;99.90
9998;DHT22;5038;53.064;8.624;2023-07-02T05:38:19;16.40;99.90
9998;DHT22;5038;53.064;8.624;2023-07-02T05:40:47;16.50;99.90
9998;DHT22;5038;53.064;8.624;2023-07-02T05:43:15;16.60;99.90
9998;DHT22;5038;53.064;8.624;2023-07-02T05:45:43;16.60;99.90
9998;DHT22;5038;53.064;8.624;2023-07-02T05:48:12;16.80;99.90
9998;DHT22;5038;53.064;8.624;2023-07-02T05:50:40;16.90;99.90
9998;DHT22;5038;53.064;8.624;2023-07-02T05:53:08;17.00;99.90
9998;DHT22;5038;53.064;8.624;2023-07-02T05:55:38;17.10;99.90
9998;DHT22;5038;53.064;8.624;2023-07-02T05:58:06;17.30;99.90
9998;DHT22;5038;53.064;8.624;2023-07-02T06:00:34;17.40;99.90
9998;DHT22;5038;53.064;8.624;2023-07-02T06:03:02;17.50;99.90
9998;DHT22;5038;53.064;8.624;2023-07-02T06:05:31;17.70;99.90
9998;DHT22;5038;53.064;8.624;2023-07-02T06:07:59;17.80;99.90
9998;DHT22;5038;53.064;8.624;2023-07-02T06:10:27;18.00;99.90
9998;DHT22;5038;53.064;8.624;2023-07-02T06:12:57;18.10;99.90
9998;DHT22;5038;53.064;8.624;2023-07-02T06:15:25;18.20;99.90
9998;DHT22;5038;53.064;8.624;2023-07-02T06:17:53;18.30;99.90
9998;DHT22;5038;53.064;8.624;2023-07-02T06:20:21;18.40;99.90
9998;DHT22;5038;53.064;8.624;2023-07-02T06:22:49;18.60;99.90
9998;DHT22;5038;53.064;8.624;2023-07-02T06:25:18;18.60;99.90
9998;DHT22;5038;53.064;8.624;2023-07-02T06:27:46;18.70;99.90
9998;DHT22;5038;53.064;8.624;2023-07-02T06:30:16;18.70;99.90
9998;DHT22;5038;53.064;8.624;2023-07-02T06:32:44;18.70;99.90
9998;DHT22;5038;53.064;8.624;2023-07-02T06:35:12;18.70;99.90
9998;DHT22;5038;53.064;8.624;2023-07-02T06:37:40;18.70;99.90
9998;DHT22;5038;53.064;8.624;2023-07-02T06:40:09;18.60;99.90
9998;DHT22;5038;53.064;8.624;2023-07-02T06:42:37;18.60;99.90
9998;DHT22;5038;53.064;8.624;2023-07-02T06:45:06;18.60;99.90
9998;DHT22;5038;53.064;8.624;2023-07-02T06:47:36;18.60;99.90
9998;DHT22;5038;53.064;8.624;2023-07-02T06:50:04;18.60;99.90
9998;DHT22;5038;53.064;8.624;2023-07-02T06:52:33;18.60;99.90
9998;DHT22;5038;53.064;8.624;2023-07-02T06:55:01;18.70;99.90
9998;DHT22;5038;53.064;8.624;2023-07-02T06:57:29;18.70;99.90
9998;DHT22;5038;53.064;8.624;2023-07-02T06:59:58;18.70;99.90
9998;DHT22;5038;53.064;8.624;2023-07-02T07:02:27;18.60;99.90
9998;DHT22;5038;53.064;8.624;2023-07-02T07:04:56;18.60;99.90
9998;DHT22;5038;53.064;8.624;2023-07-02T07:07:25;18.70;99.90
9998;DHT22;5038;53.064;8.624;2023-07-02T07:09:53;18.80;99.90
9998;DHT22;5038;53.064;8.624;2023-07-02T07:12:21;18.90;99.90
9998;DHT22;5038;53.064;8.624;2023-07-02T07:14:49;18.90;99.90
9998;DHT22;5038;53.064;8.624;2023-07-02T07:17:17;18.90;99.90
9998;DHT22;5038;53.064;8.624;2023-07-02T07:19:45;19.00;99.90
9998;DHT22;5038;53.064;8.624;2023-07-02T07:22:15;19.00;99.90
9998;DHT22;5038;53.064;8.624;2023-07-02T07:24:43;18.90;99.90
9998;DHT22;5038;53.064;8.624;2023-07-02T07:27:34;18.90;99.90
9998;DHT22;5038;53.064;8.624;2023-07-02T07:30:03;19.10;99.90
9998;DHT22;5038;53.064;8.624;2023-07-02T07:32:31;19.10;99.90
9998;DHT22;5038;53.064;8.624;2023-07-02T07:34:59;19.20;99.90
9998;DHT22;5038;53.064;8.624;2023-07-02T07:37:29;19.10;99.90
9998;DHT22;5038;53.064;8.624;2023-07-02T07:39:57;19.00;99.90
9998;DHT22;5038;53.064;8.624;2023-07-02T07:42:25;19.00;99.90
9998;DHT22;5038;53.064;8.624;2023-07-02T07:44:53;19.00;99.90
9998;DHT22;5038;53.064;8.624;2023-07-02T07:47:21;19.00;99.90
9998;DHT22;5038;53.064;8.624;2023-07-02T07:49:49;19.00;99.90
9998;DHT22;5038;53.064;8.624;2023-07-02T07:52:18;19.00;99.90
9998;DHT22;5038;53.064;8.624;2023-07-02T07:54:47;19.00;99.90
9998;DHT22;5038;53.064;8.624;2023-07-02T07:57:16;19.00;99.90
9998;DHT22;5038;53.064;8.624;2023-07-02T07:59:44;19.00;99.90
9998;DHT22;5038;53.064;8.624;2023-07-02T08:02:12;19.10;99.90
9998;DHT22;5038;53.064;8.624;2023-07-02T08:04:40;19.20;99.90
9998;DHT22;5038;53.064;8.624;2023-07-02T08:07:08;19.30;99.90
9998;DHT22;5038;53.064;8.624;2023-07-02T08:09:36;19.30;99.90
9998;DHT22;5038;53.064;8.624;2023-07-02T08:12:07;19.40;99.90
9998;DHT22;5038;53.064;8.624;2023-07-02T08:14:35;19.40;99.90
9998;DHT22;5038;53.064;8.624;2023-07-02T08:17:03;19.50;99.90
9998;DHT22;5038;53.064;8.624;2023-07-02T08:19:31;19.50;99.90
9998;DHT22;5038;53.064;8.624;2023-07-02T08:21:59;19.50;99.90
9998;DHT22;5038;53.064;8.624;2023-07-02T08:24:28;19.50;99.90
9998;DHT22;5038;53.064;8.624;2023-07-02T08:26:58;19.50;99.90
9998;DHT22;5038;53.064;8.624;2023-07-02T08:29:27;19.60;99.90
9998;DHT22;5038;53.064;8.624;2023-07-02T08:31:56;19.70;99.90
9998;DHT22;5038;53.064;8.624;2023-07-02T08:34:24;19.80;99.90
9998;DHT22;5038;53.064;8.624;2023-07-02T08:36:52;19.80;99.90
9998;DHT22;5038;53.064;8.624;2023-07-02T08:39:20;19.80;99.90
9998;DHT22;5038;53.064;8.624;2023-07-02T08:41:49;19.80;99.90
9998;DHT22;5038;53.064;8.624;2023-07-02T08:44:20;19.90;99.90
9998;DHT22;5038;53.064;8.624;2023-07-02T08:46:50;19.90;99.90
9998;DHT22;5038;53.064;8.624;2023-07-02T08:49:20;20.10;99.90
9998;DHT22;5038;53.064;8.624;2023-07-02T08:51:48;20.10;99.90
9998;DHT22;5038;53.064;8.624;2023-07-02T08:54:17;20.10;99.90
9998;DHT22;5038;53.064;8.624;2023-07-02T08:56:46;20.00;99.90
9998;DHT22;5038;53.064;8.624;2023-07-02T08:59:15;19.90;99.90
9998;DHT22;5038;53.064;8.624;2023-07-02T09:01:46;19.80;99.90
9998;DHT22;5038;53.064;8.624;2023-07-02T09:04:20;19.70;99.90
9998;DHT22;5038;53.064;8.624;2023-07-02T09:06:49;19.60;99.90
9998;DHT22;5038;53.064;8.624;2023-07-02T09:09:17;19.50;99.90
9998;DHT22;5038;53.064;8.624;2023-07-02T09:11:49;19.40;99.90
9998;DHT22;5038;53.064;8.624;2023-07-02T09:14:25;19.40;99.90
9998;DHT22;5038;53.064;8.624;2023-07-02T09:17:05;19.50;99.90
9998;DHT22;5038;53.064;8.624;2023-07-02T09:27:35;19.50;99.90
9998;DHT22;5038;53.064;8.624;2023-07-02T09:30:09;19.40;99.90
9998;DHT22;5038;53.064;8.624;2023-07-02T09:32:39;19.40;99.90
9998;DHT22;5038;53.064;8.624;2023-07-02T09:35:08;19.40;99.90
9998;DHT22;5038;53.064;8.624;2023-07-02T09:37:36;19.30;99.90
9998;DHT22;5038;53.064;8.624;2023-07-02T09:40:07;19.40;99.90
9998;DHT22;5038;53.064;8.624;2023-07-02T09:42:40;19.50;99.90
9998;DHT22;5038;53.064;8.624;2023-07-02T09:45:10;19.50;99.90
9998;DHT22;5038;53.064;8.624;2023-07-02T09:47:44;19.60;99.90
9998;DHT22;5038;53.064;8.624;2023-07-02T09:50:16;19.70;99.90
9998;DHT22;5038;53.064;8.624;2023-07-02T09:52:46;19.80;99.90
9998;DHT22;5038;53.064;8.624;2023-07-02T09:55:16;19.90;99.90
9998;DHT22;5038;53.064;8.624;2023-07-02T09:57:45;20.00;99.90
9998;DHT22;5038;53.064;8.624;2023-07-02T10:00:14;20.10;99.90
9998;DHT22;5038;53.064;8.624;2023-07-02T10:02:48;20.20;99.90
9998;DHT22;5038;53.064;8.624;2023-07-02T10:05:25;20.20;99.90
9998;DHT22;5038;53.064;8.624;2023-07-02T10:07:54;20.30;99.90
9998;DHT22;5038;53.064;8.624;2023-07-02T10:10:29;20.40;99.70
9998;DHT22;5038;53.064;8.624;2023-07-02T10:12:59;20.40;99.40
9998;DHT22;5038;53.064;8.624;2023-07-02T10:15:28;20.50;99.20
9998;DHT22;5038;53.064;8.624;2023-07-02T10:18:03;20.50;98.80
9998;DHT22;5038;53.064;8.624;2023-07-02T10:20:32;20.40;98.70
9998;DHT22;5038;53.064;8.624;2023-07-02T10:23:01;20.40;98.50
9998;DHT22;5038;53.064;8.624;2023-07-02T10:25:30;20.40;98.70
9998;DHT22;5038;53.064;8.624;2023-07-02T10:28:13;20.40;98.50
9998;DHT22;5038;53.064;8.624;2023-07-02T10:30:42;20.40;98.10
9998;DHT22;5038;53.064;8.624;2023-07-02T10:33:11;20.40;97.70
9998;DHT22;5038;53.064;8.624;2023-07-02T10:35:40;20.30;97.80
9998;DHT22;5038;53.064;8.624;2023-07-02T10:38:14;20.20;97.90
9998;DHT22;5038;53.064;8.624;2023-07-02T10:40:43;20.20;98.20
9998;DHT22;5038;53.064;8.624;2023-07-02T10:43:13;20.30;98.10
9998;DHT22;5038;53.064;8.624;2023-07-02T10:45:41;20.40;98.10
9998;DHT22;5038;53.064;8.624;2023-07-02T10:48:10;20.40;97.90
9998;DHT22;5038;53.064;8.624;2023-07-02T10:50:38;20.40;97.80
9998;DHT22;5038;53.064;8.624;2023-07-02T10:53:06;20.40;97.70
9998;DHT22;5038;53.064;8.624;2023-07-02T10:55:42;20.30;97.40
9998;DHT22;5038;53.064;8.624;2023-07-02T10:58:12;20.30;97.40
9998;DHT22;5038;53.064;8.624;2023-07-02T11:00:44;20.40;97.60
9998;DHT22;5038;53.064;8.624;2023-07-02T11:03:17;20.40;97.60
9998;DHT22;5038;53.064;8.624;2023-07-02T11:05:46;20.50;97.70
9998;DHT22;5038;53.064;8.624;2023-07-02T11:08:16;20.50;97.80
9998;DHT22;5038;53.064;8.624;2023-07-02T11:10:44;20.50;97.90
9998;DHT22;5038;53.064;8.624;2023-07-02T11:13:15;20.60;97.90
9998;DHT22;5038;53.064;8.624;2023-07-02T11:15:44;20.50;97.80
9998;DHT22;5038;53.064;8.624;2023-07-02T11:18:15;20.50;97.80
9998;DHT22;5038;53.064;8.624;2023-07-02T11:20:45;20.60;97.70
9998;DHT22;5038;53.064;8.624;2023-07-02T11:23:17;20.60;97.40
9998;DHT22;5038;53.064;8.624;2023-07-02T11:25:56;20.60;97.30
9998;DHT22;5038;53.064;8.624;2023-07-02T11:28:27;20.60;97.30
9998;DHT22;5038;53.064;8.624;2023-07-02T11:30:55;20.50;97.20
9998;DHT22;5038;53.064;8.624;2023-07-02T11:33:33;20.50;97.50
9998;DHT22;5038;53.064;8.624;2023-07-02T11:36:02;20.40;97.10
9998;DHT22;5038;53.064;8.624;2023-07-02T11:38:30;20.40;97.20
9998;DHT22;5038;53.064;8.624;2023-07-02T11:40:58;20.30;97.30
9998;DHT22;5038;53.064;8.624;2023-07-02T11:43:28;20.40;97.50
9998;DHT22;5038;53.064;8.624;2023-07-02T11:45:56;20.40;97.60
9998;DHT22;5038;53.064;8.624;2023-07-02T11:48:24;20.50;97.60
9998;DHT22;5038;53.064;8.624;2023-07-02T11:50:52;20.60;97.60
9998;DHT22;5038;53.064;8.624;2023-07-02T11:53:20;20.60;97.40
9998;DHT22;5038;53.064;8.624;2023-07-02T11:55:49;20.70;97.40
9998;DHT22;5038;53.064;8.624;2023-07-02T11:58:17;20.70;97.20
9998;DHT22;5038;53.064;8.624;2023-07-02T12:00:47;20.70;97.00
9998;DHT22;5038;53.064;8.624;2023-07-02T12:03:15;20.70;97.10
9998;DHT22;5038;53.064;8.624;2023-07-02T12:05:43;20.70;97.00
9998;DHT22;5038;53.064;8.624;2023-07-02T12:08:11;20.70;97.00
9998;DHT22;5038;53.064;8.624;2023-07-02T12:10:40;20.80;97.10
9998;DHT22;5038;53.064;8.624;2023-07-02T12:13:08;20.80;97.00
9998;DHT22;5038;53.064;8.624;2023-07-02T12:15:36;20.80;96.90
9998;DHT22;5038;53.064;8.624;2023-07-02T12:18:06;20.80;96.90
9998;DHT22;5038;53.064;8.624;2023-07-02T12:20:34;20.90;97.20
9998;DHT22;5038;53.064;8.624;2023-07-02T12:23:02;21.00;97.40
9998;DHT22;5038;53.064;8.624;2023-07-02T12:25:31;21.00;97.20
9998;DHT22;5038;53.064;8.624;2023-07-02T12:27:59;21.00;97.10
9998;DHT22;5038;53.064;8.624;2023-07-02T12:30:27;21.00;97.30
9998;DHT22;5038;53.064;8.624;2023-07-02T12:32:55;21.00;97.40
9998;DHT22;5038;53.064;8.624;2023-07-02T12:35:25;20.90;97.40
9998;DHT22;5038;53.064;8.624;2023-07-02T12:37:53;20.90;97.40
9998;DHT22;5038;53.064;8.624;2023-07-02T12:40:21;20.90;97.30
9998;DHT22;5038;53.064;8.624;2023-07-02T12:42:49;20.90;97.30
9998;DHT22;5038;53.064;8.624;2023-07-02T12:45:17;20.90;97.40
9998;DHT22;5038;53.064;8.624;2023-07-02T12:47:47;20.90;97.50
9998;DHT22;5038;53.064;8.624;2023-07-02T12:50:16;21.00;97.70
9998;DHT22;5038;53.064;8.624;2023-07-02T12:52:47;21.00;97.60
9998;DHT22;5038;53.064;8.624;2023-07-02T12:55:15;21.10;97.50
9998;DHT22;5038;53.064;8.624;2023-07-02T12:57:43;21.10;97.40
9998;DHT22;5038;53.064;8.624;2023-07-02T13:00:12;21.10;97.30
9998;DHT22;5038;53.064;8.624;2023-07-02T13:02:40;21.00;97.20
9998;DHT22;5038;53.064;8.624;2023-07-02T13:05:28;21.00;97.10
9998;DHT22;5038;53.064;8.624;2023-07-02T13:07:58;21.10;97.20
9998;DHT22;5038;53.064;8.624;2023-07-02T13:10:26;21.10;97.00
9998;DHT22;5038;53.064;8.624;2023-07-02T13:12:54;21.20;97.00
9998;DHT22;5038;53.064;8.624;2023-07-02T13:15:32;21.20;96.90
9998;DHT22;5038;53.064;8.624;2023-07-02T13:18:01;21.10;96.60
9998;DHT22;5038;53.064;8.624;2023-07-02T13:20:30;21.10;96.60
9998;DHT22;5038;53.064;8.624;2023-07-02T13:22:59;21.00;96.50
9998;DHT22;5038;53.064;8.624;2023-07-02T13:25:27;21.10;96.60
9998;DHT22;5038;53.064;8.624;2023-07-02T13:27:55;21.10;96.40
9998;DHT22;5038;53.064;8.624;2023-07-02T13:30:24;21.20;96.20
9998;DHT22;5038;53.064;8.624;2023-07-02T13:32:54;21.20;96.00
9998;DHT22;5038;53.064;8.624;2023-07-02T13:35:22;21.20;96.20
9998;DHT22;5038;53.064;8.624;2023-07-02T13:37:50;21.20;95.80
9998;DHT22;5038;53.064;8.624;2023-07-02T13:40:20;21.30;95.80
9998;DHT22;5038;53.064;8.624;2023-07-02T13:42:48;21.40;95.50
9998;DHT22;5038;53.064;8.624;2023-07-02T13:45:17;21.30;95.40
9998;DHT22;5038;53.064;8.624;2023-07-02T13:47:45;21.30;95.30
9998;DHT22;5038;53.064;8.624;2023-07-02T13:50:13;21.30;95.40
9998;DHT22;5038;53.064;8.624;2023-07-02T13:52:41;21.30;95.50
9998;DHT22;5038;53.064;8.624;2023-07-02T13:55:09;21.30;95.60
9998;DHT22;5038;53.064;8.624;2023-07-02T13:57:39;21.30;95.50
9998;DHT22;5038;53.064;8.624;2023-07-02T14:00:10;21.30;95.50
9998;DHT22;5038;53.064;8.624;2023-07-02T14:02:38;21.30;95.50
9998;DHT22;5038;53.064;8.624;2023-07-02T14:05:07;21.30;95.60
9998;DHT22;5038;53.064;8.624;2023-07-02T14:07:35;21.30;95.70
9998;DHT22;5038;53.064;8.624;2023-07-02T14:10:04;21.30;95.50
9998;DHT22;5038;53.064;8.624;2023-07-02T14:12:32;21.30;95.10
9998;DHT22;5038;53.064;8.624;2023-07-02T14:15:00;21.30;94.90
9998;DHT22;5038;53.064;8.624;2023-07-02T14:17:30;21.20;94.80
9998;DHT22;5038;53.064;8.624;2023-07-02T14:19:58;21.10;94.80
9998;DHT22;5038;53.064;8.624;2023-07-02T14:22:26;21.00;94.90
9998;DHT22;5038;53.064;8.624;2023-07-02T14:24:54;21.00;94.90
9998;DHT22;5038;53.064;8.624;2023-07-02T14:27:22;21.10;95.00
9998;DHT22;5038;53.064;8.624;2023-07-02T14:29:50;21.10;94.90
9998;DHT22;5038;53.064;8.624;2023-07-02T14:32:18;21.10;94.70
9998;DHT22;5038;53.064;8.624;2023-07-02T14:34:48;21.10;94.60
9998;DHT22;5038;53.064;8.624;2023-07-02T14:37:16;21.10;94.50
9998;DHT22;5038;53.064;8.624;2023-07-02T14:39:44;21.10;94.50
9998;DHT22;5038;53.064;8.624;2023-07-02T14:42:31;21.00;94.50
9998;DHT22;5038;53.064;8.624;2023-07-02T14:44:59;21.00;94.60
9998;DHT22;5038;53.064;8.624;2023-07-02T14:47:27;21.00;94.70
9998;DHT22;5038;53.064;8.624;2023-07-02T14:49:57;21.00;94.90
9998;DHT22;5038;53.064;8.624;2023-07-02T14:52:25;21.00;94.80
9998;DHT22;5038;53.064;8.624;2023-07-02T14:54:53;21.00;94.80
9998;DHT22;5038;53.064;8.624;2023-07-02T14:57:22;21.00;94.70
9998;DHT22;5038;53.064;8.624;2023-07-02T14:59:50;21.00;94.70
9998;DHT22;5038;53.064;8.624;2023-07-02T15:02:18;20.90;94.60
9998;DHT22;5038;53.064;8.624;2023-07-02T15:04:47;20.90;94.60
9998;DHT22;5038;53.064;8.624;2023-07-02T15:07:16;20.90;94.60
9998;DHT22;5038;53.064;8.624;2023-07-02T15:09:44;20.90;94.60
9998;DHT22;5038;53.064;8.624;2023-07-02T15:12:12;20.90;94.80
9998;DHT22;5038;53.064;8.624;2023-07-02T15:14:41;20.90;94.50
9998;DHT22;5038;53.064;8.624;2023-07-02T15:17:09;20.90;94.40
9998;DHT22;5038;53.064;8.624;2023-07-02T15:19:37;20.90;94.40
9998;DHT22;5038;53.064;8.624;2023-07-02T15:22:05;20.90;94.30
9998;DHT22;5038;53.064;8.624;2023-07-02T15:24:35;20.90;94.30
9998;DHT22;5038;53.064;8.624;2023-07-02T15:27:03;20.80;94.40
9998;DHT22;5038;53.064;8.624;2023-07-02T15:29:31;20.80;94.40
9998;DHT22;5038;53.064;8.624;2023-07-02T15:31:59;20.80;94.40
9998;DHT22;5038;53.064;8.624;2023-07-02T15:34:27;20.80;94.50
9998;DHT22;5038;53.064;8.624;2023-07-02T15:36:56;20.80;94.30
9998;DHT22;5038;53.064;8.624;2023-07-02T15:39:24;20.70;94.10
9998;DHT22;5038;53.064;8.624;2023-07-02T15:42:00;20.80;94.20
9998;DHT22;5038;53.064;8.624;2023-07-02T15:44:29;20.80;94.20
9998;DHT22;5038;53.064;8.624;2023-07-02T15:46:57;20.80;94.20
9998;DHT22;5038;53.064;8.624;2023-07-02T15:49:26;20.80;94.20
9998;DHT22;5038;53.064;8.624;2023-07-02T15:51:54;20.80;94.40
9998;DHT22;5038;53.064;8.624;2023-07-02T15:54:22;20.80;94.40
9998;DHT22;5038;53.064;8.624;2023-07-02T15:56:50;20.80;94.20
9998;DHT22;5038;53.064;8.624;2023-07-02T15:59:20;20.70;94.10
9998;DHT22;5038;53.064;8.624;2023-07-02T16:01:48;20.70;94.00
9998;DHT22;5038;53.064;8.624;2023-07-02T16:04:17;20.70;94.10
9998;DHT22;5038;53.064;8.624;2023-07-02T16:06:46;20.60;94.00
9998;DHT22;5038;53.064;8.624;2023-07-02T16:09:15;20.60;94.00
9998;DHT22;5038;53.064;8.624;2023-07-02T16:11:43;20.60;94.10
9998;DHT22;5038;53.064;8.624;2023-07-02T16:14:13;20.60;94.20
9998;DHT22;5038;53.064;8.624;2023-07-02T16:16:45;20.60;94.20
9998;DHT22;5038;53.064;8.624;2023-07-02T16:19:15;20.60;94.20
9998;DHT22;5038;53.064;8.624;2023-07-02T16:21:43;20.60;94.20